sensor_id;sensor_type;location;lat;lon;timestamp;temperature;humidity
3818;DHT22;1924;48.078;11.516;2024-03-06T00:00:37;7.00;99.90
3818;DHT22;1924;48.078;11.516;2024-03-06T00:03:04;6.90;99.90
3818;DHT22;1924;48.078;11.516;2024-03-06T00:05:30;6.80;99.90
3818;DHT22;1924;48.078;11.516;2024-03-06T00:07:57;7.00;99.90
3818;DHT22;1924;48.078;11.516;2024-03-06T00:10:27;6.90;99.90
3818;DHT22;1924;48.078;11.516;2024-03-06T00:12:54;6.90;99.90
3818;DHT22;1924;48.078;11.516;2024-03-06T00:15:20;7.10;99.90
3818;DHT22;1924;48.078;11.516;2024-03-06T00:17:47;6.90;99.90
3818;DHT22;1924;48.078;11.516;2024-03-06T00:20:15;6.70;99.90
3818;DHT22;1924;48.078;11.516;2024-03-06T00:22:42;6.60;99.90
3818;DHT22;1924;48.078;11.516;2024-03-06T00:25:09;6.70;99.90
3818;DHT22;1924;48.078;11.516;2024-03-06T00:27:37;6.80;99.90
3818;DHT22;1924;48.078;11.516;2024-03-06T00:30:05;7.00;99.90
3818;DHT22;1924;48.078;11.516;2024-03-06T00:32:32;6.90;99.90
3818;DHT22;1924;48.078;11.516;2024-03-06T00:34:59;6.80;99.90
3818;DHT22;1924;48.078;11.516;2024-03-06T00:37:26;6.80;99.90
3818;DHT22;1924;48.078;11.516;2024-03-06T00:39:52;6.80;99.90
3818;DHT22;1924;48.078;11.516;2024-03-06T00:42:20;6.90;99.90
3818;DHT22;1924;48.078;11.516;2024-03-06T00:44:48;6.90;99.90
3818;DHT22;1924;48.078;11.516;2024-03-06T00:47:14;6.90;99.90
3818;DHT22;1924;48.078;11.516;2024-03-06T00:49:41;6.90;99.90
3818;DHT22;1924;48.078;11.516;2024-03-06T00:52:08;6.90;99.90
3818;DHT22;1924;48.078;11.516;2024-03-06T00:54:35;6.60;99.90
3818;DHT22;1924;48.078;11.516;2024-03-06T00:57:02;6.30;99.90
3818;DHT22;1924;48.078;11.516;2024-03-06T00:59:29;6.30;99.90
3818;DHT22;1924;48.078;11.516;2024-03-06T01:01:57;6.40;99.90
3818;DHT22;1924;48.078;11.516;2024-03-06T01:04:24;6.50;99.90
3818;DHT22;1924;48.078;11.516;2024-03-06T01:06:51;6.60;99.90
3818;DHT22;1924;48.078;11.516;2024-03-06T01:09:18;6.70;99.90
3818;DHT22;1924;48.078;11.516;2024-03-06T01:11:44;6.70;99.90
3818;DHT22;1924;48.078;11.516;2024-03-06T01:14:12;6.80;99.90
3818;DHT22;1924;48.078;11.516;2024-03-06T01:16:39;6.80;99.90
3818;DHT22;1924;48.078;11.516;2024-03-06T01:19:07;6.70;99.90
3818;DHT22;1924;48.078;11.516;2024-03-06T01:21:34;6.80;99.90
3818;DHT22;1924;48.078;11.516;2024-03-06T01:24:00;6.80;99.90
3818;DHT22;1924;48.078;11.516;2024-03-06T01:26:27;6.80;99.90
3818;DHT22;1924;48.078;11.516;2024-03-06T01:28:54;6.90;99.90
3818;DHT22;1924;48.078;11.516;2024-03-06T01:31:21;6.90;99.90
3818;DHT22;1924;48.078;11.516;2024-03-06T01:33:47;6.90;99.90
3818;DHT22;1924;48.078;11.516;2024-03-06T01:36:15;6.70;99.90
3818;DHT22;1924;48.078;11.516;2024-03-06T01:38:42;6.70;99.90
3818;DHT22;1924;48.078;11.516;2024-03-06T01:41:11;6.60;99.90
3818;DHT22;1924;48.078;11.516;2024-03-06T01:43:38;6.70;99.90
3818;DHT22;1924;48.078;11.516;2024-03-06T01:46:05;6.80;99.90
3818;DHT22;1924;48.078;11.516;2024-03-06T01:48:32;6.80;99.90
3818;DHT22;1924;48.078;11.516;2024-03-06T01:51:02;6.80;99.90
3818;DHT22;1924;48.078;11.516;2024-03-06T01:53:32;6.90;99.90
3818;DHT22;1924;48.078;11.516;2024-03-06T01:56:00;6.90;99.90
3818;DHT22;1924;48.078;11.516;2024-03-06T01:58:27;7.00;99.90
3818;DHT22;1924;48.078;11.516;2024-03-06T02:00:54;6.80;99.90
3818;DHT22;1924;48.078;11.516;2024-03-06T02:03:21;6.80;99.90
3818;DHT22;1924;48.078;11.516;2024-03-06T02:05:49;6.80;99.90
3818;DHT22;1924;48.078;11.516;2024-03-06T02:08:16;6.90;99.90
3818;DHT22;1924;48.078;11.516;2024-03-06T02:10:45;6.90;99.90
3818;DHT22;1924;48.078;11.516;2024-03-06T02:13:13;6.90;99.90
3818;DHT22;1924;48.078;11.516;2024-03-06T05:01:11;5.70;99.90
3818;DHT22;1924;48.078;11.516;2024-03-06T05:03:37;5.70;99.90
3818;DHT22;1924;48.078;11.516;2024-03-06T05:06:05;5.70;99.90
3818;DHT22;1924;48.078;11.516;2024-03-06T05:08:31;5.70;99.90
3818;DHT22;1924;48.078;11.516;2024-03-06T05:11:00;5.70;99.90
3818;DHT22;1924;48.078;11.516;2024-03-06T05:13:27;5.60;99.90
3818;DHT22;1924;48.078;11.516;2024-03-06T05:15:54;5.50;99.90
3818;DHT22;1924;48.078;11.516;2024-03-06T05:18:22;5.30;99.90
3818;DHT22;1924;48.078;11.516;2024-03-06T05:20:49;5.30;99.90
3818;DHT22;1924;48.078;11.516;2024-03-06T05:23:15;5.30;99.90
3818;DHT22;1924;48.078;11.516;2024-03-06T05:25:43;5.30;99.90
3818;DHT22;1924;48.078;11.516;2024-03-06T05:28:10;5.30;99.90
3818;DHT22;1924;48.078;11.516;2024-03-06T05:30:36;5.40;99.90
3818;DHT22;1924;48.078;11.516;2024-03-06T05:33:03;5.30;99.90
3818;DHT22;1924;48.078;11.516;2024-03-06T05:35:32;5.30;99.90
3818;DHT22;1924;48.078;11.516;2024-03-06T05:37:59;5.40;99.90
3818;DHT22;1924;48.078;11.516;2024-03-06T05:40:25;5.40;99.90
3818;DHT22;1924;48.078;11.516;2024-03-06T05:42:52;5.40;99.90
3818;DHT22;1924;48.078;11.516;2024-03-06T05:45:19;5.40;99.90
3818;DHT22;1924;48.078;11.516;2024-03-06T05:47:46;5.40;99.90
3818;DHT22;1924;48.078;11.516;2024-03-06T05:50:14;5.50;99.90
3818;DHT22;1924;48.078;11.516;2024-03-06T05:52:42;5.60;99.90
3818;DHT22;1924;48.078;11.516;2024-03-06T05:55:09;5.60;99.90
3818;DHT22;1924;48.078;11.516;2024-03-06T05:57:36;5.40;99.90
3818;DHT22;1924;48.078;11.516;2024-03-06T06:00:04;5.30;99.90
3818;DHT22;1924;48.078;11.516;2024-03-06T06:02:36;5.10;99.90
3818;DHT22;1924;48.078;11.516;2024-03-06T06:05:03;5.10;99.90
3818;DHT22;1924;48.078;11.516;2024-03-06T06:07:30;5.10;99.90
3818;DHT22;1924;48.078;11.516;2024-03-06T06:09:58;5.10;99.90
3818;DHT22;1924;48.078;11.516;2024-03-06T06:12:25;5.20;99.90
3818;DHT22;1924;48.078;11.516;2024-03-06T06:14:52;5.30;99.90
3818;DHT22;1924;48.078;11.516;2024-03-06T06:17:18;5.20;99.90
3818;DHT22;1924;48.078;11.516;2024-03-06T06:19:46;5.30;99.90
3818;DHT22;1924;48.078;11.516;2024-03-06T06:22:12;5.20;99.90
3818;DHT22;1924;48.078;11.516;2024-03-06T06:24:39;5.30;99.90
3818;DHT22;1924;48.078;11.516;2024-03-06T06:27:07;5.20;99.90
3818;DHT22;1924;48.078;11.516;2024-03-06T06:29:34;5.30;99.90
3818;DHT22;1924;48.078;11.516;2024-03-06T06:32:01;5.40;99.90
3818;DHT22;1924;48.078;11.516;2024-03-06T06:34:28;5.30;99.90
3818;DHT22;1924;48.078;11.516;2024-03-06T06:36:54;5.20;99.90
3818;DHT22;1924;48.078;11.516;2024-03-06T06:39:21;5.20;99.90
3818;DHT22;1924;48.078;11.516;2024-03-06T06:41:48;5.10;99.90
3818;DHT22;1924;48.078;11.516;2024-03-06T06:44:16;5.00;99.90
3818;DHT22;1924;48.078;11.516;2024-03-06T06:46:44;5.00;99.90
3818;DHT22;1924;48.078;11.516;2024-03-06T06:49:11;5.10;99.90
3818;DHT22;1924;48.078;11.516;2024-03-06T06:51:37;5.40;99.90
3818;DHT22;1924;48.078;11.516;2024-03-06T06:54:04;5.40;99.90
3818;DHT22;1924;48.078;11.516;2024-03-06T06:56:31;5.40;99.90
3818;DHT22;1924;48.078;11.516;2024-03-06T06:58:58;5.30;99.90
3818;DHT22;1924;48.078;11.516;2024-03-06T07:01:26;5.30;99.90
3818;DHT22;1924;48.078;11.516;2024-03-06T07:03:53;5.20;99.90
3818;DHT22;1924;48.078;11.516;2024-03-06T07:06:20;5.20;99.90
3818;DHT22;1924;48.078;11.516;2024-03-06T07:08:47;5.30;99.90
3818;DHT22;1924;48.078;11.516;2024-03-06T07:11:13;5.30;99.90
3818;DHT22;1924;48.078;11.516;2024-03-06T07:13:40;5.40;99.90
3818;DHT22;1924;48.078;11.516;2024-03-06T07:16:07;5.30;99.90
3818;DHT22;1924;48.078;11.516;2024-03-06T07:18:36;5.30;99.90
3818;DHT22;1924;48.078;11.516;2024-03-06T07:24:24;5.40;99.90
3818;DHT22;1924;48.078;11.516;2024-03-06T07:26:51;5.50;99.90
3818;DHT22;1924;48.078;11.516;2024-03-06T07:29:18;5.50;99.90
3818;DHT22;1924;48.078;11.516;2024-03-06T07:31:45;5.40;99.90
3818;DHT22;1924;48.078;11.516;2024-03-06T07:34:14;5.40;99.90
3818;DHT22;1924;48.078;11.516;2024-03-06T07:36:41;5.40;99.90
3818;DHT22;1924;48.078;11.516;2024-03-06T07:39:07;5.40;99.90
3818;DHT22;1924;48.078;11.516;2024-03-06T07:41:34;5.40;99.90
3818;DHT22;1924;48.078;11.516;2024-03-06T07:44:01;5.40;99.90
3818;DHT22;1924;48.078;11.516;2024-03-06T07:46:28;5.40;99.90
3818;DHT22;1924;48.078;11.516;2024-03-06T07:48:55;5.40;99.90
3818;DHT22;1924;48.078;11.516;2024-03-06T07:51:23;5.20;99.90
3818;DHT22;1924;48.078;11.516;2024-03-06T07:53:50;5.20;99.90
3818;DHT22;1924;48.078;11.516;2024-03-06T07:56:18;5.30;99.90
3818;DHT22;1924;48.078;11.516;2024-03-06T07:58:44;5.30;99.90
3818;DHT22;1924;48.078;11.516;2024-03-06T08:01:11;5.50;99.90
3818;DHT22;1924;48.078;11.516;2024-03-06T08:03:39;5.50;99.90
3818;DHT22;1924;48.078;11.516;2024-03-06T08:06:06;5.50;99.90
3818;DHT22;1924;48.078;11.516;2024-03-06T08:08:34;5.50;99.90
3818;DHT22;1924;48.078;11.516;2024-03-06T08:11:01;5.40;99.90
3818;DHT22;1924;48.078;11.516;2024-03-06T08:13:28;5.20;99.90
3818;DHT22;1924;48.078;11.516;2024-03-06T08:15:54;5.10;99.90
3818;DHT22;1924;48.078;11.516;2024-03-06T08:18:21;4.50;99.90
3818;DHT22;1924;48.078;11.516;2024-03-06T08:20:48;4.20;99.90
3818;DHT22;1924;48.078;11.516;2024-03-06T08:23:15;4.50;99.90
3818;DHT22;1924;48.078;11.516;2024-03-06T08:25:43;4.90;99.90
3818;DHT22;1924;48.078;11.516;2024-03-06T08:28:10;5.20;99.90
3818;DHT22;1924;48.078;11.516;2024-03-06T08:30:37;5.30;99.90
3818;DHT22;1924;48.078;11.516;2024-03-06T08:33:04;5.20;99.90
3818;DHT22;1924;48.078;11.516;2024-03-06T08:35:31;4.70;99.90
3818;DHT22;1924;48.078;11.516;2024-03-06T08:37:57;4.40;99.90
3818;DHT22;1924;48.078;11.516;2024-03-06T08:40:24;4.50;99.90
3818;DHT22;1924;48.078;11.516;2024-03-06T08:42:55;4.90;99.90
3818;DHT22;1924;48.078;11.516;2024-03-06T08:45:22;5.10;99.90
3818;DHT22;1924;48.078;11.516;2024-03-06T08:47:49;5.00;99.90
3818;DHT22;1924;48.078;11.516;2024-03-06T08:50:17;5.00;99.90
3818;DHT22;1924;48.078;11.516;2024-03-06T08:52:45;5.10;99.90
3818;DHT22;1924;48.078;11.516;2024-03-06T08:55:12;5.10;99.90
3818;DHT22;1924;48.078;11.516;2024-03-06T08:57:39;5.20;99.90
3818;DHT22;1924;48.078;11.516;2024-03-06T09:00:08;5.10;99.90
3818;DHT22;1924;48.078;11.516;2024-03-06T09:02:36;5.10;99.90
3818;DHT22;1924;48.078;11.516;2024-03-06T09:05:04;5.20;99.90
3818;DHT22;1924;48.078;11.516;2024-03-06T09:07:31;5.30;99.90
3818;DHT22;1924;48.078;11.516;2024-03-06T09:10:03;5.30;99.90
3818;DHT22;1924;48.078;11.516;2024-03-06T09:12:31;5.40;99.90
3818;DHT22;1924;48.078;11.516;2024-03-06T09:14:58;5.50;99.90
3818;DHT22;1924;48.078;11.516;2024-03-06T09:17:27;5.50;99.90
3818;DHT22;1924;48.078;11.516;2024-03-06T09:19:54;5.40;99.90
3818;DHT22;1924;48.078;11.516;2024-03-06T09:22:21;5.40;99.90
3818;DHT22;1924;48.078;11.516;2024-03-06T09:24:48;5.60;99.90
3818;DHT22;1924;48.078;11.516;2024-03-06T09:27:15;5.60;99.90
3818;DHT22;1924;48.078;11.516;2024-03-06T09:29:42;5.60;99.90
3818;DHT22;1924;48.078;11.516;2024-03-06T09:32:09;5.60;99.90
3818;DHT22;1924;48.078;11.516;2024-03-06T09:34:39;5.60;99.90
3818;DHT22;1924;48.078;11.516;2024-03-06T09:37:06;5.70;99.90
3818;DHT22;1924;48.078;11.516;2024-03-06T09:39:35;5.70;99.90
3818;DHT22;1924;48.078;11.516;2024-03-06T09:42:02;5.60;99.90
3818;DHT22;1924;48.078;11.516;2024-03-06T09:44:29;5.70;99.90
3818;DHT22;1924;48.078;11.516;2024-03-06T09:46:59;5.70;99.90
3818;DHT22;1924;48.078;11.516;2024-03-06T09:49:28;5.80;99.90
3818;DHT22;1924;48.078;11.516;2024-03-06T09:51:58;5.90;99.90
3818;DHT22;1924;48.078;11.516;2024-03-06T09:54:26;5.90;99.90
3818;DHT22;1924;48.078;11.516;2024-03-06T09:56:53;5.80;99.90
3818;DHT22;1924;48.078;11.516;2024-03-06T09:59:23;5.80;99.90
3818;DHT22;1924;48.078;11.516;2024-03-06T10:01:53;5.90;99.90
3818;DHT22;1924;48.078;11.516;2024-03-06T10:04:21;5.90;99.90
3818;DHT22;1924;48.078;11.516;2024-03-06T10:06:48;5.80;99.90
3818;DHT22;1924;48.078;11.516;2024-03-06T10:09:18;5.80;99.90
3818;DHT22;1924;48.078;11.516;2024-03-06T10:11:45;5.80;99.90
3818;DHT22;1924;48.078;11.516;2024-03-06T10:14:12;5.70;99.90
3818;DHT22;1924;48.078;11.516;2024-03-06T10:16:52;5.80;99.90
3818;DHT22;1924;48.078;11.516;2024-03-06T10:19:19;5.90;99.90
3818;DHT22;1924;48.078;11.516;2024-03-06T10:21:47;5.90;99.90
3818;DHT22;1924;48.078;11.516;2024-03-06T10:24:18;6.00;99.90
3818;DHT22;1924;48.078;11.516;2024-03-06T10:26:47;6.00;99.90
3818;DHT22;1924;48.078;11.516;2024-03-06T10:29:16;5.80;99.90
3818;DHT22;1924;48.078;11.516;2024-03-06T10:31:48;5.90;99.90
3818;DHT22;1924;48.078;11.516;2024-03-06T10:34:16;5.90;99.90
3818;DHT22;1924;48.078;11.516;2024-03-06T10:36:43;5.90;99.90
3818;DHT22;1924;48.078;11.516;2024-03-06T10:39:11;5.90;99.90
3818;DHT22;1924;48.078;11.516;2024-03-06T10:41:43;6.00;99.90
3818;DHT22;1924;48.078;11.516;2024-03-06T10:44:12;6.00;99.90
3818;DHT22;1924;48.078;11.516;2024-03-06T10:46:44;6.00;99.90
3818;DHT22;1924;48.078;11.516;2024-03-06T10:49:12;6.10;99.90
3818;DHT22;1924;48.078;11.516;2024-03-06T10:51:40;6.00;99.90
3818;DHT22;1924;48.078;11.516;2024-03-06T10:54:09;6.00;99.90
3818;DHT22;1924;48.078;11.516;2024-03-06T10:56:38;6.00;99.90
3818;DHT22;1924;48.078;11.516;2024-03-06T10:59:10;6.10;99.90
3818;DHT22;1924;48.078;11.516;2024-03-06T11:01:37;6.10;99.90
3818;DHT22;1924;48.078;11.516;2024-03-06T11:04:05;6.10;99.90
3818;DHT22;1924;48.078;11.516;2024-03-06T11:06:33;6.10;99.90
3818;DHT22;1924;48.078;11.516;2024-03-06T11:09:00;6.10;99.90
3818;DHT22;1924;48.078;11.516;2024-03-06T11:11:28;6.00;99.90
3818;DHT22;1924;48.078;11.516;2024-03-06T11:13:55;6.00;99.90
3818;DHT22;1924;48.078;11.516;2024-03-06T11:16:28;6.10;99.90
3818;DHT22;1924;48.078;11.516;2024-03-06T11:19:05;6.10;99.90
3818;DHT22;1924;48.078;11.516;2024-03-06T11:21:33;6.10;99.90
3818;DHT22;1924;48.078;11.516;2024-03-06T11:24:17;6.10;99.90
3818;DHT22;1924;48.078;11.516;2024-03-06T11:26:47;6.20;99.90
3818;DHT22;1924;48.078;11.516;2024-03-06T11:29:16;6.20;99.90
3818;DHT22;1924;48.078;11.516;2024-03-06T11:31:59;6.20;99.90
3818;DHT22;1924;48.078;11.516;2024-03-06T11:34:26;6.20;99.90
3818;DHT22;1924;48.078;11.516;2024-03-06T11:36:53;6.00;99.90
3818;DHT22;1924;48.078;11.516;2024-03-06T11:39:22;6.00;99.90
3818;DHT22;1924;48.078;11.516;2024-03-06T11:41:50;6.10;99.90
3818;DHT22;1924;48.078;11.516;2024-03-06T11:44:18;6.20;99.90
3818;DHT22;1924;48.078;11.516;2024-03-06T11:46:47;6.30;99.90
3818;DHT22;1924;48.078;11.516;2024-03-06T11:49:17;6.40;99.90
3818;DHT22;1924;48.078;11.516;2024-03-06T11:51:46;6.40;99.90
3818;DHT22;1924;48.078;11.516;2024-03-06T11:54:14;6.30;99.90
3818;DHT22;1924;48.078;11.516;2024-03-06T11:56:42;6.30;99.90
3818;DHT22;1924;48.078;11.516;2024-03-06T11:59:10;6.50;99.90
3818;DHT22;1924;48.078;11.516;2024-03-06T12:01:37;6.50;99.90
3818;DHT22;1924;48.078;11.516;2024-03-06T12:04:04;6.50;99.90
3818;DHT22;1924;48.078;11.516;2024-03-06T12:06:33;6.40;99.90
3818;DHT22;1924;48.078;11.516;2024-03-06T12:09:00;6.50;99.90
3818;DHT22;1924;48.078;11.516;2024-03-06T12:11:28;6.40;99.90
3818;DHT22;1924;48.078;11.516;2024-03-06T12:13:56;6.40;99.90
3818;DHT22;1924;48.078;11.516;2024-03-06T12:16:23;6.40;99.90
3818;DHT22;1924;48.078;11.516;2024-03-06T12:18:54;6.30;99.90
3818;DHT22;1924;48.078;11.516;2024-03-06T12:21:23;6.30;99.90
3818;DHT22;1924;48.078;11.516;2024-03-06T12:24:01;6.30;99.90
3818;DHT22;1924;48.078;11.516;2024-03-06T12:26:29;6.30;99.90
3818;DHT22;1924;48.078;11.516;2024-03-06T12:29:04;6.30;99.90
3818;DHT22;1924;48.078;11.516;2024-03-06T12:31:31;6.30;99.90
3818;DHT22;1924;48.078;11.516;2024-03-06T12:33:59;6.30;99.90
3818;DHT22;1924;48.078;11.516;2024-03-06T12:36:28;6.40;99.90
3818;DHT22;1924;48.078;11.516;2024-03-06T12:38:59;6.40;99.90
3818;DHT22;1924;48.078;11.516;2024-03-06T12:41:26;6.30;99.90
3818;DHT22;1924;48.078;11.516;2024-03-06T12:43:53;6.10;99.90
3818;DHT22;1924;48.078;11.516;2024-03-06T12:46:21;6.10;99.90
3818;DHT22;1924;48.078;11.516;2024-03-06T12:48:48;6.20;99.90
3818;DHT22;1924;48.078;11.516;2024-03-06T12:51:15;6.30;99.90
3818;DHT22;1924;48.078;11.516;2024-03-06T12:53:42;6.30;99.90
3818;DHT22;1924;48.078;11.516;2024-03-06T12:56:10;6.30;99.90
3818;DHT22;1924;48.078;11.516;2024-03-06T12:58:37;6.30;99.90
3818;DHT22;1924;48.078;11.516;2024-03-06T13:01:04;6.30;99.90
3818;DHT22;1924;48.078;11.516;2024-03-06T13:03:31;6.40;99.90
3818;DHT22;1924;48.078;11.516;2024-03-06T13:05:59;6.50;99.90
3818;DHT22;1924;48.078;11.516;2024-03-06T13:08:26;6.40;99.90
3818;DHT22;1924;48.078;11.516;2024-03-06T13:10:53;6.30;99.90
3818;DHT22;1924;48.078;11.516;2024-03-06T13:13:21;6.30;99.90
3818;DHT22;1924;48.078;11.516;2024-03-06T13:15:49;6.30;99.90
3818;DHT22;1924;48.078;11.516;2024-03-06T13:18:16;6.30;99.90
3818;DHT22;1924;48.078;11.516;2024-03-06T13:20:43;6.40;99.90
3818;DHT22;1924;48.078;11.516;2024-03-06T13:23:10;6.30;99.90
3818;DHT22;1924;48.078;11.516;2024-03-06T13:25:37;6.30;99.90
3818;DHT22;1924;48.078;11.516;2024-03-06T13:28:04;6.20;99.90
3818;DHT22;1924;48.078;11.516;2024-03-06T13:30:32;6.30;99.90
3818;DHT22;1924;48.078;11.516;2024-03-06T13:32:59;6.20;99.90
3818;DHT22;1924;48.078;11.516;2024-03-06T13:35:26;6.20;99.90
3818;DHT22;1924;48.078;11.516;2024-03-06T13:37:54;6.20;99.90
3818;DHT22;1924;48.078;11.516;2024-03-06T13:40:21;6.10;99.90
3818;DHT22;1924;48.078;11.516;2024-03-06T13:42:47;6.20;99.90
3818;DHT22;1924;48.078;11.516;2024-03-06T13:45:14;6.20;99.90
3818;DHT22;1924;48.078;11.516;2024-03-06T13:47:43;6.20;99.90
3818;DHT22;1924;48.078;11.516;2024-03-06T13:50:12;6.30;99.90
3818;DHT22;1924;48.078;11.516;2024-03-06T13:52:39;6.30;99.90
3818;DHT22;1924;48.078;11.516;2024-03-06T13:55:07;6.20;99.90
3818;DHT22;1924;48.078;11.516;2024-03-06T13:57:35;6.20;99.90
3818;DHT22;1924;48.078;11.516;2024-03-06T14:00:03;6.20;99.90
3818;DHT22;1924;48.078;11.516;2024-03-06T14:02:31;6.30;99.90
3818;DHT22;1924;48.078;11.516;2024-03-06T14:04:59;6.30;99.90
3818;DHT22;1924;48.078;11.516;2024-03-06T14:07:26;6.30;99.90
3818;DHT22;1924;48.078;11.516;2024-03-06T14:09:53;6.20;99.90
3818;DHT22;1924;48.078;11.516;2024-03-06T14:12:22;6.20;99.90
3818;DHT22;1924;48.078;11.516;2024-03-06T14:14:49;6.10;99.90
3818;DHT22;1924;48.078;11.516;2024-03-06T14:17:15;6.10;99.90
3818;DHT22;1924;48.078;11.516;2024-03-06T14:19:42;6.10;99.90
3818;DHT22;1924;48.078;11.516;2024-03-06T14:22:12;6.10;99.90
3818;DHT22;1924;48.078;11.516;2024-03-06T14:24:39;6.20;99.90
3818;DHT22;1924;48.078;11.516;2024-03-06T14:27:06;6.20;99.90
3818;DHT22;1924;48.078;11.516;2024-03-06T14:29:33;6.20;99.90
3818;DHT22;1924;48.078;11.516;2024-03-06T14:32:00;6.20;99.90
3818;DHT22;1924;48.078;11.516;2024-03-06T14:34:26;6.20;99.90
3818;DHT22;1924;48.078;11.516;2024-03-06T14:36:53;6.20;99.90
3818;DHT22;1924;48.078;11.516;2024-03-06T14:39:21;6.10;99.90
3818;DHT22;1924;48.078;11.516;2024-03-06T14:41:49;6.10;99.90
3818;DHT22;1924;48.078;11.516;2024-03-06T14:44:16;6.00;99.90
3818;DHT22;1924;48.078;11.516;2024-03-06T14:46:43;5.90;99.90
3818;DHT22;1924;48.078;11.516;2024-03-06T14:49:10;5.90;99.90
3818;DHT22;1924;48.078;11.516;2024-03-06T14:51:36;5.90;99.90
3818;DHT22;1924;48.078;11.516;2024-03-06T14:54:03;5.90;99.90
3818;DHT22;1924;48.078;11.516;2024-03-06T14:56:32;5.80;99.90
3818;DHT22;1924;48.078;11.516;2024-03-06T14:58:59;5.70;99.90
3818;DHT22;1924;48.078;11.516;2024-03-06T15:01:25;5.90;99.90
3818;DHT22;1924;48.078;11.516;2024-03-06T15:03:53;6.00;99.90
3818;DHT22;1924;48.078;11.516;2024-03-06T15:06:20;6.00;99.90
3818;DHT22;1924;48.078;11.516;2024-03-06T15:08:48;6.00;99.90
3818;DHT22;1924;48.078;11.516;2024-03-06T15:11:14;6.00;99.90
3818;DHT22;1924;48.078;11.516;2024-03-06T15:13:42;6.00;99.90
3818;DHT22;1924;48.078;11.516;2024-03-06T15:16:10;6.10;99.90
3818;DHT22;1924;48.078;11.516;2024-03-06T15:18:38;6.10;99.90
3818;DHT22;1924;48.078;11.516;2024-03-06T15:21:06;6.20;99.90
3818;DHT22;1924;48.078;11.516;2024-03-06T15:23:33;6.20;99.90
3818;DHT22;1924;48.078;11.516;2024-03-06T15:26:00;6.10;99.90
3818;DHT22;1924;48.078;11.516;2024-03-06T15:28:26;6.10;99.90
3818;DHT22;1924;48.078;11.516;2024-03-06T15:30:54;6.10;99.90
3818;DHT22;1924;48.078;11.516;2024-03-06T15:33:22;6.10;99.90
3818;DHT22;1924;48.078;11.516;2024-03-06T15:35:48;6.10;99.90
3818;DHT22;1924;48.078;11.516;2024-03-06T15:38:15;6.40;99.90
3818;DHT22;1924;48.078;11.516;2024-03-06T15:40:42;6.40;99.90
3818;DHT22;1924;48.078;11.516;2024-03-06T15:43:09;6.40;99.90
3818;DHT22;1924;48.078;11.516;2024-03-06T15:45:51;6.30;99.90
3818;DHT22;1924;48.078;11.516;2024-03-06T15:48:20;6.20;99.90
3818;DHT22;1924;48.078;11.516;2024-03-06T15:50:49;6.10;99.90
3818;DHT22;1924;48.078;11.516;2024-03-06T15:53:16;6.10;99.90
3818;DHT22;1924;48.078;11.516;2024-03-06T15:55:43;6.10;99.90
3818;DHT22;1924;48.078;11.516;2024-03-06T15:58:09;6.10;99.90
3818;DHT22;1924;48.078;11.516;2024-03-06T16:00:36;6.10;99.90
3818;DHT22;1924;48.078;11.516;2024-03-06T16:03:04;6.00;99.90
3818;DHT22;1924;48.078;11.516;2024-03-06T16:05:34;6.00;99.90
3818;DHT22;1924;48.078;11.516;2024-03-06T16:08:01;5.90;99.90
3818;DHT22;1924;48.078;11.516;2024-03-06T16:10:29;5.90;99.90
3818;DHT22;1924;48.078;11.516;2024-03-06T16:12:56;5.90;99.90
3818;DHT22;1924;48.078;11.516;2024-03-06T16:15:22;6.00;99.90
3818;DHT22;1924;48.078;11.516;2024-03-06T16:17:49;5.90;99.90
3818;DHT22;1924;48.078;11.516;2024-03-06T16:20:17;5.80;99.90
3818;DHT22;1924;48.078;11.516;2024-03-06T16:22:45;5.90;99.90
3818;DHT22;1924;48.078;11.516;2024-03-06T16:25:12;5.90;99.90
3818;DHT22;1924;48.078;11.516;2024-03-06T16:27:38;5.90;99.90
3818;DHT22;1924;48.078;11.516;2024-03-06T16:30:06;5.90;99.90
3818;DHT22;1924;48.078;11.516;2024-03-06T16:32:34;5.90;99.90
3818;DHT22;1924;48.078;11.516;2024-03-06T16:35:01;5.80;99.90
3818;DHT22;1924;48.078;11.516;2024-03-06T16:37:29;5.80;99.90
3818;DHT22;1924;48.078;11.516;2024-03-06T16:39:57;5.80;99.90
3818;DHT22;1924;48.078;11.516;2024-03-06T16:42:25;5.90;99.90
3818;DHT22;1924;48.078;11.516;2024-03-06T16:44:52;5.90;99.90
3818;DHT22;1924;48.078;11.516;2024-03-06T16:47:19;5.90;99.90
3818;DHT22;1924;48.078;11.516;2024-03-06T16:49:45;5.90;99.90
3818;DHT22;1924;48.078;11.516;2024-03-06T16:52:12;5.90;99.90
3818;DHT22;1924;48.078;11.516;2024-03-06T16:54:39;5.80;99.90
3818;DHT22;1924;48.078;11.516;2024-03-06T16:57:07;5.70;99.90
3818;DHT22;1924;48.078;11.516;2024-03-06T16:59:36;5.70;99.90
3818;DHT22;1924;48.078;11.516;2024-03-06T17:02:03;5.70;99.90
3818;DHT22;1924;48.078;11.516;2024-03-06T17:04:30;5.80;99.90
3818;DHT22;1924;48.078;11.516;2024-03-06T17:06:56;5.80;99.90
3818;DHT22;1924;48.078;11.516;2024-03-06T17:09:23;5.70;99.90
3818;DHT22;1924;48.078;11.516;2024-03-06T17:11:50;5.60;99.90
3818;DHT22;1924;48.078;11.516;2024-03-06T17:14:18;5.60;99.90
3818;DHT22;1924;48.078;11.516;2024-03-06T17:16:45;5.70;99.90
3818;DHT22;1924;48.078;11.516;2024-03-06T17:19:12;5.70;99.90
3818;DHT22;1924;48.078;11.516;2024-03-06T17:25:00;5.70;99.90
3818;DHT22;1924;48.078;11.516;2024-03-06T17:27:27;5.70;99.90
3818;DHT22;1924;48.078;11.516;2024-03-06T17:29:55;5.70;99.90
3818;DHT22;1924;48.078;11.516;2024-03-06T17:32:21;5.70;99.90
3818;DHT22;1924;48.078;11.516;2024-03-06T17:34:49;5.70;99.90
3818;DHT22;1924;48.078;11.516;2024-03-06T17:37:16;5.70;99.90
3818;DHT22;1924;48.078;11.516;2024-03-06T17:39:43;5.60;99.90
3818;DHT22;1924;48.078;11.516;2024-03-06T17:42:10;5.60;99.90
3818;DHT22;1924;48.078;11.516;2024-03-06T17:44:37;5.60;99.90
3818;DHT22;1924;48.078;11.516;2024-03-06T17:47:05;5.70;99.90
3818;DHT22;1924;48.078;11.516;2024-03-06T17:49:32;5.70;99.90
3818;DHT22;1924;48.078;11.516;2024-03-06T17:51:58;5.60;99.90
3818;DHT22;1924;48.078;11.516;2024-03-06T17:54:25;5.60;99.90
3818;DHT22;1924;48.078;11.516;2024-03-06T17:56:52;5.60;99.90
3818;DHT22;1924;48.078;11.516;2024-03-06T17:59:20;5.60;99.90
3818;DHT22;1924;48.078;11.516;2024-03-06T18:01:47;5.70;99.90
3818;DHT22;1924;48.078;11.516;2024-03-06T18:04:16;5.60;99.90
3818;DHT22;1924;48.078;11.516;2024-03-06T18:06:42;5.60;99.90
3818;DHT22;1924;48.078;11.516;2024-03-06T18:09:09;5.60;99.90
3818;DHT22;1924;48.078;11.516;2024-03-06T18:11:40;5.70;99.90
3818;DHT22;1924;48.078;11.516;2024-03-06T18:14:07;5.70;99.90
3818;DHT22;1924;48.078;11.516;2024-03-06T18:16:34;5.70;99.90
3818;DHT22;1924;48.078;11.516;2024-03-06T18:19:00;5.50;99.90
3818;DHT22;1924;48.078;11.516;2024-03-06T18:21:28;5.40;99.90
3818;DHT22;1924;48.078;11.516;2024-03-06T18:23:55;5.40;99.90
3818;DHT22;1924;48.078;11.516;2024-03-06T18:26:23;5.50;99.90
3818;DHT22;1924;48.078;11.516;2024-03-06T18:28:50;5.50;99.90
3818;DHT22;1924;48.078;11.516;2024-03-06T18:31:16;5.40;99.90
3818;DHT22;1924;48.078;11.516;2024-03-06T18:33:43;5.20;99.90
3818;DHT22;1924;48.078;11.516;2024-03-06T18:36:10;5.10;99.90
3818;DHT22;1924;48.078;11.516;2024-03-06T18:38:38;5.10;99.90
3818;DHT22;1924;48.078;11.516;2024-03-06T18:41:05;5.10;99.90
3818;DHT22;1924;48.078;11.516;2024-03-06T18:43:31;5.40;99.90
3818;DHT22;1924;48.078;11.516;2024-03-06T18:45:58;5.40;99.90
3818;DHT22;1924;48.078;11.516;2024-03-06T18:48:25;5.50;99.90
3818;DHT22;1924;48.078;11.516;2024-03-06T18:50:52;5.50;99.90
3818;DHT22;1924;48.078;11.516;2024-03-06T18:53:18;5.60;99.90
3818;DHT22;1924;48.078;11.516;2024-03-06T18:55:46;5.60;99.90